sensor_id;sensor_type;location;lat;lon;timestamp;pressure;altitude;pressure_sealevel;temperature;humidity
22259;BME280;11298;46.034;14.496;2022-09-13T00:02:17;98063.56;;;16.37;75.92
22259;BME280;11298;46.034;14.496;2022-09-13T00:04:46;98057.25;;;16.37;74.73
22259;BME280;11298;46.034;14.496;2022-09-13T00:07:14;98065.41;;;16.32;74.96
22259;BME280;11298;46.034;14.496;2022-09-13T00:09:42;98067.28;;;16.26;74.42
22259;BME280;11298;46.034;14.496;2022-09-13T00:12:12;98056.56;;;16.25;74.01
22259;BME280;11298;46.034;14.496;2022-09-13T00:14:43;98062.22;;;16.18;74.06
22259;BME280;11298;46.034;14.496;2022-09-13T00:17:15;98061.16;;;16.19;75.57
22259;BME280;11298;46.034;14.496;2022-09-13T00:19:45;98058.91;;;16.16;75.75
22259;BME280;11298;46.034;14.496;2022-09-13T00:22:16;98057.56;;;16.19;75.62
22259;BME280;11298;46.034;14.496;2022-09-13T00:24:44;98057.84;;;16.17;74.91
22259;BME280;11298;46.034;14.496;2022-09-13T00:27:14;98050.13;;;16.14;75.21
22259;BME280;11298;46.034;14.496;2022-09-13T00:29:46;98049.53;;;16.12;75.59
22259;BME280;11298;46.034;14.496;2022-09-13T00:32:16;98053.94;;;16.13;75.26
22259;BME280;11298;46.034;14.496;2022-09-13T00:34:46;98049.78;;;16.11;75.48
22259;BME280;11298;46.034;14.496;2022-09-13T00:37:16;98049.38;;;16.02;75.38
22259;BME280;11298;46.034;14.496;2022-09-13T00:39:46;98048.22;;;15.98;75.33
22259;BME280;11298;46.034;14.496;2022-09-13T00:42:17;98046.56;;;15.97;75.28
22259;BME280;11298;46.034;14.496;2022-09-13T00:44:47;98053.72;;;15.98;74.78
22259;BME280;11298;46.034;14.496;2022-09-13T00:47:41;98043.84;;;15.97;75.40
22259;BME280;11298;46.034;14.496;2022-09-13T00:53:12;98046.72;;;15.85;75.20
22259;BME280;11298;46.034;14.496;2022-09-13T00:55:59;98049.44;;;15.85;74.77
22259;BME280;11298;46.034;14.496;2022-09-13T00:58:53;98053.25;;;15.84;74.44
22259;BME280;11298;46.034;14.496;2022-09-13T01:01:34;98048.63;;;15.85;74.71
22259;BME280;11298;46.034;14.496;2022-09-13T01:04:03;98045.78;;;15.80;74.49
22259;BME280;11298;46.034;14.496;2022-09-13T01:06:40;98042.81;;;15.81;75.23
22259;BME280;11298;46.034;14.496;2022-09-13T01:09:14;98048.19;;;15.76;74.77
22259;BME280;11298;46.034;14.496;2022-09-13T01:12:48;98051.19;;;15.74;74.29
22259;BME280;11298;46.034;14.496;2022-09-13T01:15:03;98061.56;;;15.72;74.48
22259;BME280;11298;46.034;14.496;2022-09-13T01:17:31;98054.94;;;15.68;74.91
22259;BME280;11298;46.034;14.496;2022-09-13T01:20:00;98046.97;;;15.67;75.60
22259;BME280;11298;46.034;14.496;2022-09-13T01:23:19;98038.50;;;15.68;75.99
22259;BME280;11298;46.034;14.496;2022-09-13T01:35:37;98029.97;;;15.48;76.34
22259;BME280;11298;46.034;14.496;2022-09-13T01:41:20;98039.34;;;15.52;78.30
22259;BME280;11298;46.034;14.496;2022-09-13T01:49:46;98036.50;;;15.47;77.43
22259;BME280;11298;46.034;14.496;2022-09-13T01:57:55;98026.56;;;15.41;78.21
22259;BME280;11298;46.034;14.496;2022-09-13T02:00:35;98025.72;;;15.40;77.32
22259;BME280;11298;46.034;14.496;2022-09-13T02:03:07;98026.56;;;15.41;76.04
22259;BME280;11298;46.034;14.496;2022-09-13T02:05:39;98013.97;;;15.40;75.22
22259;BME280;11298;46.034;14.496;2022-09-13T02:08:16;98020.50;;;15.39;76.90
22259;BME280;11298;46.034;14.496;2022-09-13T02:13:57;98002.75;;;15.25;77.29
22259;BME280;11298;46.034;14.496;2022-09-13T02:19:07;98010.41;;;15.23;78.57
22259;BME280;11298;46.034;14.496;2022-09-13T02:21:40;98006.00;;;15.22;78.40
22259;BME280;11298;46.034;14.496;2022-09-13T02:24:20;98010.66;;;15.21;78.23
22259;BME280;11298;46.034;14.496;2022-09-13T02:26:52;98007.09;;;15.21;78.55
22259;BME280;11298;46.034;14.496;2022-09-13T02:29:22;98005.94;;;15.17;78.21
22259;BME280;11298;46.034;14.496;2022-09-13T02:31:59;98013.31;;;15.16;76.69
22259;BME280;11298;46.034;14.496;2022-09-13T02:34:38;98019.25;;;15.13;76.84
22259;BME280;11298;46.034;14.496;2022-09-13T02:37:07;98014.28;;;15.10;76.46
22259;BME280;11298;46.034;14.496;2022-09-13T02:39:37;98017.03;;;15.10;76.20
22259;BME280;11298;46.034;14.496;2022-09-13T02:42:19;98011.81;;;15.08;76.39
22259;BME280;11298;46.034;14.496;2022-09-13T02:44:51;98013.47;;;15.09;76.45
22259;BME280;11298;46.034;14.496;2022-09-13T02:56:39;98015.19;;;14.99;76.93
22259;BME280;11298;46.034;14.496;2022-09-13T03:01:40;98007.22;;;14.97;77.49
22259;BME280;11298;46.034;14.496;2022-09-13T03:04:16;98012.09;;;14.95;77.56
22259;BME280;11298;46.034;14.496;2022-09-13T03:06:47;98009.63;;;14.94;76.77
22259;BME280;11298;46.034;14.496;2022-09-13T03:09:16;98013.44;;;14.93;77.74
22259;BME280;11298;46.034;14.496;2022-09-13T03:17:45;98008.97;;;14.87;77.60
22259;BME280;11298;46.034;14.496;2022-09-13T03:26:24;98018.72;;;14.83;77.51
22259;BME280;11298;46.034;14.496;2022-09-13T03:32:01;98018.38;;;14.79;76.03
22259;BME280;11298;46.034;14.496;2022-09-13T03:38:06;98011.75;;;14.75;76.84
22259;BME280;11298;46.034;14.496;2022-09-13T03:40:48;98012.81;;;14.74;77.24
22259;BME280;11298;46.034;14.496;2022-09-13T03:43:49;98014.72;;;14.73;77.23
22259;BME280;11298;46.034;14.496;2022-09-13T03:46:43;98014.38;;;14.70;77.05
22259;BME280;11298;46.034;14.496;2022-09-13T03:49:18;98016.53;;;14.68;77.60
22259;BME280;11298;46.034;14.496;2022-09-13T03:51:48;98014.38;;;14.70;77.82
22259;BME280;11298;46.034;14.496;2022-09-13T03:54:19;98009.31;;;14.62;77.72
22259;BME280;11298;46.034;14.496;2022-09-13T03:57:11;98006.91;;;14.65;78.67
22259;BME280;11298;46.034;14.496;2022-09-13T03:59:49;98010.72;;;14.64;78.64
22259;BME280;11298;46.034;14.496;2022-09-13T04:02:18;98015.38;;;14.64;77.85
22259;BME280;11298;46.034;14.496;2022-09-13T04:04:46;98024.63;;;14.63;76.90
22259;BME280;11298;46.034;14.496;2022-09-13T04:07:18;98024.78;;;14.56;75.95
22259;BME280;11298;46.034;14.496;2022-09-13T04:09:48;98007.66;;;14.61;75.91
22259;BME280;11298;46.034;14.496;2022-09-13T04:12:16;98006.25;;;14.58;76.19
22259;BME280;11298;46.034;14.496;2022-09-13T04:14:44;98006.41;;;14.52;76.51
22259;BME280;11298;46.034;14.496;2022-09-13T04:17:12;97997.88;;;14.48;77.77
22259;BME280;11298;46.034;14.496;2022-09-13T04:19:41;97993.59;;;14.40;78.33
22259;BME280;11298;46.034;14.496;2022-09-13T04:22:13;97989.91;;;14.35;79.34
22259;BME280;11298;46.034;14.496;2022-09-13T04:24:41;97988.22;;;14.17;80.86
22259;BME280;11298;46.034;14.496;2022-09-13T04:27:11;97993.84;;;14.27;79.84
22259;BME280;11298;46.034;14.496;2022-09-13T04:29:40;97980.22;;;14.27;78.51
22259;BME280;11298;46.034;14.496;2022-09-13T04:32:08;97987.91;;;14.30;77.96
22259;BME280;11298;46.034;14.496;2022-09-13T04:34:37;97997.19;;;14.29;78.06
22259;BME280;11298;46.034;14.496;2022-09-13T04:37:04;97991.22;;;14.32;78.04
22259;BME280;11298;46.034;14.496;2022-09-13T04:39:32;97990.88;;;14.29;78.24
22259;BME280;11298;46.034;14.496;2022-09-13T04:42:01;97996.34;;;14.29;79.39
22259;BME280;11298;46.034;14.496;2022-09-13T04:44:30;98001.56;;;14.30;78.97
22259;BME280;11298;46.034;14.496;2022-09-13T04:46:57;98005.97;;;14.31;78.26
22259;BME280;11298;46.034;14.496;2022-09-13T04:49:27;98007.63;;;14.32;77.84
22259;BME280;11298;46.034;14.496;2022-09-13T04:51:55;98015.22;;;14.30;78.34
22259;BME280;11298;46.034;14.496;2022-09-13T04:54:31;98003.47;;;14.30;79.26
22259;BME280;11298;46.034;14.496;2022-09-13T04:56:59;98005.38;;;14.29;79.56
22259;BME280;11298;46.034;14.496;2022-09-13T04:59:33;98002.88;;;14.28;80.02
22259;BME280;11298;46.034;14.496;2022-09-13T05:02:01;98003.47;;;14.30;80.63
22259;BME280;11298;46.034;14.496;2022-09-13T05:04:30;98004.78;;;14.27;80.96
22259;BME280;11298;46.034;14.496;2022-09-13T05:06:58;98006.44;;;14.28;81.64
22259;BME280;11298;46.034;14.496;2022-09-13T05:09:29;98008.94;;;14.30;82.00
22259;BME280;11298;46.034;14.496;2022-09-13T05:11:59;98013.09;;;14.32;81.80
22259;BME280;11298;46.034;14.496;2022-09-13T05:14:28;98018.41;;;14.39;81.83
22259;BME280;11298;46.034;14.496;2022-09-13T05:16:56;98022.09;;;14.45;81.55
22259;BME280;11298;46.034;14.496;2022-09-13T05:19:24;98023.19;;;14.44;81.31
22259;BME280;11298;46.034;14.496;2022-09-13T05:21:54;98024.34;;;14.48;81.07
22259;BME280;11298;46.034;14.496;2022-09-13T05:24:21;98038.38;;;14.51;80.99
22259;BME280;11298;46.034;14.496;2022-09-13T05:26:48;98030.00;;;14.58;80.90
22259;BME280;11298;46.034;14.496;2022-09-13T05:29:16;98026.28;;;14.64;80.85
22259;BME280;11298;46.034;14.496;2022-09-13T05:31:46;98028.28;;;14.68;80.71
22259;BME280;11298;46.034;14.496;2022-09-13T05:34:16;98026.59;;;14.79;80.05
22259;BME280;11298;46.034;14.496;2022-09-13T05:36:46;98024.53;;;14.86;80.23
22259;BME280;11298;46.034;14.496;2022-09-13T05:39:20;98028.34;;;14.85;80.11
22259;BME280;11298;46.034;14.496;2022-09-13T05:42:07;98023.53;;;14.92;79.99
22259;BME280;11298;46.034;14.496;2022-09-13T05:44:34;98015.84;;;14.89;80.36
22259;BME280;11298;46.034;14.496;2022-09-13T05:47:03;98027.53;;;14.85;81.09
22259;BME280;11298;46.034;14.496;2022-09-13T05:49:33;98018.91;;;14.93;81.39
22259;BME280;11298;46.034;14.496;2022-09-13T05:52:16;98022.75;;;15.08;80.80
22259;BME280;11298;46.034;14.496;2022-09-13T05:54:45;98024.94;;;14.95;81.11
22259;BME280;11298;46.034;14.496;2022-09-13T05:57:15;98023.53;;;14.92;82.52
22259;BME280;11298;46.034;14.496;2022-09-13T05:59:48;98017.09;;;14.98;81.97
22259;BME280;11298;46.034;14.496;2022-09-13T06:02:15;98017.84;;;15.11;81.91
22259;BME280;11298;46.034;14.496;2022-09-13T06:04:44;98015.13;;;15.11;81.80
22259;BME280;11298;46.034;14.496;2022-09-13T06:07:15;98018.38;;;15.24;82.21
22259;BME280;11298;46.034;14.496;2022-09-13T06:09:43;98015.78;;;15.34;81.13
22259;BME280;11298;46.034;14.496;2022-09-13T06:12:12;98000.69;;;15.49;81.57
22259;BME280;11298;46.034;14.496;2022-09-13T06:14:42;98000.19;;;15.35;80.55
22259;BME280;11298;46.034;14.496;2022-09-13T06:17:10;97998.19;;;15.47;81.00
22259;BME280;11298;46.034;14.496;2022-09-13T06:19:37;97994.22;;;15.71;80.67
22259;BME280;11298;46.034;14.496;2022-09-13T06:22:05;98006.34;;;15.59;80.37
22259;BME280;11298;46.034;14.496;2022-09-13T06:24:35;98013.72;;;15.97;80.02
22259;BME280;11298;46.034;14.496;2022-09-13T06:27:04;98008.91;;;16.26;78.01
22259;BME280;11298;46.034;14.496;2022-09-13T06:29:31;98014.19;;;16.54;77.59
22259;BME280;11298;46.034;14.496;2022-09-13T06:32:02;98006.88;;;16.87;77.33
22259;BME280;11298;46.034;14.496;2022-09-13T06:34:32;98003.84;;;17.15;76.80
22259;BME280;11298;46.034;14.496;2022-09-13T06:37:01;98001.59;;;17.44;75.67
22259;BME280;11298;46.034;14.496;2022-09-13T06:39:30;98001.84;;;17.74;73.50
22259;BME280;11298;46.034;14.496;2022-09-13T06:45:10;97997.00;;;17.92;71.93
22259;BME280;11298;46.034;14.496;2022-09-13T06:47:39;97997.97;;;18.23;72.34
22259;BME280;11298;46.034;14.496;2022-09-13T06:50:10;97993.38;;;18.33;69.62
22259;BME280;11298;46.034;14.496;2022-09-13T06:52:43;98008.81;;;18.50;69.31
22259;BME280;11298;46.034;14.496;2022-09-13T06:55:15;98012.50;;;18.81;71.32
22259;BME280;11298;46.034;14.496;2022-09-13T06:57:48;98015.00;;;18.92;68.15
22259;BME280;11298;46.034;14.496;2022-09-13T07:00:17;98018.31;;;19.09;68.69
22259;BME280;11298;46.034;14.496;2022-09-13T14:58:02;97826.91;;;26.31;48.54
22259;BME280;11298;46.034;14.496;2022-09-13T15:00:34;97830.81;;;26.30;48.04
22259;BME280;11298;46.034;14.496;2022-09-13T15:03:10;97830.78;;;26.22;48.20
22259;BME280;11298;46.034;14.496;2022-09-13T15:05:38;97824.72;;;26.28;48.74
22259;BME280;11298;46.034;14.496;2022-09-13T15:11:05;97811.59;;;26.12;48.83
22259;BME280;11298;46.034;14.496;2022-09-13T15:13:33;97811.56;;;26.03;49.63
22259;BME280;11298;46.034;14.496;2022-09-13T15:16:00;97808.47;;;26.13;49.60
22259;BME280;11298;46.034;14.496;2022-09-13T15:18:31;97805.50;;;26.01;49.48
22259;BME280;11298;46.034;14.496;2022-09-13T15:21:05;97803.91;;;26.17;49.45
22259;BME280;11298;46.034;14.496;2022-09-13T15:23:42;97805.72;;;26.22;48.53
22259;BME280;11298;46.034;14.496;2022-09-13T15:26:23;97811.88;;;26.01;48.96
22259;BME280;11298;46.034;14.496;2022-09-13T15:28:56;97808.03;;;25.71;49.63
22259;BME280;11298;46.034;14.496;2022-09-13T15:31:27;97807.91;;;25.77;49.82
22259;BME280;11298;46.034;14.496;2022-09-13T15:34:21;97813.47;;;25.77;49.68
22259;BME280;11298;46.034;14.496;2022-09-13T15:37:11;97801.34;;;25.73;49.95
22259;BME280;11298;46.034;14.496;2022-09-13T15:39:44;97813.97;;;25.48;50.69
22259;BME280;11298;46.034;14.496;2022-09-13T15:42:15;97804.69;;;25.52;50.59
22259;BME280;11298;46.034;14.496;2022-09-13T15:44:43;97806.41;;;25.70;50.98
22259;BME280;11298;46.034;14.496;2022-09-13T15:47:15;97811.97;;;25.70;50.49
22259;BME280;11298;46.034;14.496;2022-09-13T15:49:47;97806.16;;;25.50;51.88
22259;BME280;11298;46.034;14.496;2022-09-13T15:52:18;97809.59;;;25.55;51.46
22259;BME280;11298;46.034;14.496;2022-09-13T15:54:47;97808.19;;;25.35;52.37
22259;BME280;11298;46.034;14.496;2022-09-13T15:57:26;97805.16;;;25.46;52.08
22259;BME280;11298;46.034;14.496;2022-09-13T15:59:54;97791.88;;;25.43;52.34
22259;BME280;11298;46.034;14.496;2022-09-13T16:02:28;97803.78;;;25.03;53.56
22259;BME280;11298;46.034;14.496;2022-09-13T16:04:57;97798.16;;;25.17;53.59
22259;BME280;11298;46.034;14.496;2022-09-13T16:07:26;97800.69;;;25.05;54.32
22259;BME280;11298;46.034;14.496;2022-09-13T16:09:53;97802.31;;;25.06;53.67
22259;BME280;11298;46.034;14.496;2022-09-13T16:12:20;97803.91;;;24.98;54.00
22259;BME280;11298;46.034;14.496;2022-09-13T16:14:50;97800.13;;;24.94;54.58
22259;BME280;11298;46.034;14.496;2022-09-13T16:17:23;97799.28;;;24.94;54.27
22259;BME280;11298;46.034;14.496;2022-09-13T16:19:51;97800.22;;;24.67;55.08
22259;BME280;11298;46.034;14.496;2022-09-13T16:22:18;97803.28;;;24.79;54.71
22259;BME280;11298;46.034;14.496;2022-09-13T16:24:46;97798.53;;;24.80;55.12
22259;BME280;11298;46.034;14.496;2022-09-13T16:27:15;97788.81;;;24.68;55.47
22259;BME280;11298;46.034;14.496;2022-09-13T16:29:43;97788.13;;;24.63;55.62
22259;BME280;11298;46.034;14.496;2022-09-13T16:32:10;97798.41;;;24.62;55.89
22259;BME280;11298;46.034;14.496;2022-09-13T16:34:38;97799.03;;;24.37;56.75
22259;BME280;11298;46.034;14.496;2022-09-13T16:37:05;97795.44;;;24.36;57.11
22259;BME280;11298;46.034;14.496;2022-09-13T16:39:32;97790.78;;;24.46;56.72
22259;BME280;11298;46.034;14.496;2022-09-13T16:41:59;97805.78;;;24.45;56.92
22259;BME280;11298;46.034;14.496;2022-09-13T16:44:26;97797.19;;;24.32;57.59
22259;BME280;11298;46.034;14.496;2022-09-13T16:46:53;97798.63;;;24.30;57.50
22259;BME280;11298;46.034;14.496;2022-09-13T16:49:21;97801.69;;;24.42;57.30
22259;BME280;11298;46.034;14.496;2022-09-13T16:51:48;97801.59;;;24.33;57.51
22259;BME280;11298;46.034;14.496;2022-09-13T16:54:15;97802.66;;;24.10;58.35
22259;BME280;11298;46.034;14.496;2022-09-13T16:56:42;97807.81;;;24.03;58.81
22259;BME280;11298;46.034;14.496;2022-09-13T16:59:09;97805.78;;;23.67;59.91
22259;BME280;11298;46.034;14.496;2022-09-13T17:01:36;97808.22;;;24.10;59.01
22259;BME280;11298;46.034;14.496;2022-09-13T17:04:04;97796.97;;;23.65;60.01
22259;BME280;11298;46.034;14.496;2022-09-13T17:06:31;97799.34;;;23.72;59.74
22259;BME280;11298;46.034;14.496;2022-09-13T17:09:01;97799.44;;;23.81;59.86
22259;BME280;11298;46.034;14.496;2022-09-13T17:11:30;97798.91;;;23.65;60.57
22259;BME280;11298;46.034;14.496;2022-09-13T17:13:58;97804.88;;;23.72;60.05
22259;BME280;11298;46.034;14.496;2022-09-13T17:19:01;97797.38;;;23.59;60.38
22259;BME280;11298;46.034;14.496;2022-09-13T17:21:29;97799.00;;;23.46;60.83
22259;BME280;11298;46.034;14.496;2022-09-13T17:23:59;97798.59;;;23.39;61.15
22259;BME280;11298;46.034;14.496;2022-09-13T17:26:26;97801.47;;;23.61;60.30
22259;BME280;11298;46.034;14.496;2022-09-13T17:28:54;97807.78;;;23.53;60.42
22259;BME280;11298;46.034;14.496;2022-09-13T17:31:22;97818.91;;;23.48;60.69
22259;BME280;11298;46.034;14.496;2022-09-13T17:33:49;97813.22;;;23.26;61.15
22259;BME280;11298;46.034;14.496;2022-09-13T17:36:19;97819.72;;;23.35;61.25
22259;BME280;11298;46.034;14.496;2022-09-13T17:38:46;97822.38;;;23.26;61.47
22259;BME280;11298;46.034;14.496;2022-09-13T17:41:15;97827.28;;;23.29;61.23
22259;BME280;11298;46.034;14.496;2022-09-13T17:43:44;97823.78;;;23.24;61.58
22259;BME280;11298;46.034;14.496;2022-09-13T17:46:14;97825.22;;;23.08;62.37
22259;BME280;11298;46.034;14.496;2022-09-13T17:48:42;97836.69;;;23.01;62.50
22259;BME280;11298;46.034;14.496;2022-09-13T17:51:12;97834.38;;;22.89;62.95
22259;BME280;11298;46.034;14.496;2022-09-13T17:53:47;97831.66;;;23.03;62.57
22259;BME280;11298;46.034;14.496;2022-09-13T17:56:20;97837.28;;;22.98;62.84
22259;BME280;11298;46.034;14.496;2022-09-13T17:58:47;97837.88;;;22.81;63.22
22259;BME280;11298;46.034;14.496;2022-09-13T18:01:14;97850.81;;;22.86;63.37
22259;BME280;11298;46.034;14.496;2022-09-13T18:03:42;97851.38;;;22.64;64.10
22259;BME280;11298;46.034;14.496;2022-09-13T18:06:10;97845.31;;;22.62;63.85
22259;BME280;11298;46.034;14.496;2022-09-13T18:08:38;97841.06;;;22.69;63.81
22259;BME280;11298;46.034;14.496;2022-09-13T18:11:07;97842.03;;;22.60;63.92
22259;BME280;11298;46.034;14.496;2022-09-13T18:13:41;97847.41;;;22.70;63.72
22259;BME280;11298;46.034;14.496;2022-09-13T18:16:12;97843.41;;;22.44;64.79
22259;BME280;11298;46.034;14.496;2022-09-13T18:18:47;97855.66;;;22.37;64.83
22259;BME280;11298;46.034;14.496;2022-09-13T18:21:17;97842.97;;;22.18;65.29
22259;BME280;11298;46.034;14.496;2022-09-13T18:23:46;97864.72;;;22.43;64.00
22259;BME280;11298;46.034;14.496;2022-09-13T18:26:17;97861.66;;;22.45;63.62
22259;BME280;11298;46.034;14.496;2022-09-13T18:28:45;97866.06;;;22.46;63.34
22259;BME280;11298;46.034;14.496;2022-09-13T18:31:16;97867.13;;;22.50;63.58
22259;BME280;11298;46.034;14.496;2022-09-13T18:33:44;97868.91;;;22.40;63.30
22259;BME280;11298;46.034;14.496;2022-09-13T18:36:14;97872.56;;;22.55;62.92
22259;BME280;11298;46.034;14.496;2022-09-13T18:38:44;97871.81;;;22.49;63.21
22259;BME280;11298;46.034;14.496;2022-09-13T18:41:14;97867.31;;;22.34;63.53
22259;BME280;11298;46.034;14.496;2022-09-13T18:43:43;97865.81;;;22.61;62.97
22259;BME280;11298;46.034;14.496;2022-09-13T18:46:14;97856.13;;;22.45;63.16
22259;BME280;11298;46.034;14.496;2022-09-13T18:48:45;97869.69;;;22.22;64.03
22259;BME280;11298;46.034;14.496;2022-09-13T18:51:18;97858.50;;;22.32;63.51
22259;BME280;11298;46.034;14.496;2022-09-13T18:53:47;97853.72;;;21.95;64.58
22259;BME280;11298;46.034;14.496;2022-09-13T18:56:17;97856.41;;;22.05;64.50
22259;BME280;11298;46.034;14.496;2022-09-13T18:58:46;97858.72;;;22.17;64.47
22259;BME280;11298;46.034;14.496;2022-09-13T19:01:17;97861.41;;;22.03;64.61
22259;BME280;11298;46.034;14.496;2022-09-13T19:03:56;97866.69;;;22.19;64.24
22259;BME280;11298;46.034;14.496;2022-09-13T19:06:32;97863.13;;;22.18;64.33
22259;BME280;11298;46.034;14.496;2022-09-13T19:09:00;97857.31;;;21.96;64.75
22259;BME280;11298;46.034;14.496;2022-09-13T19:11:32;97863.63;;;22.20;64.35
22259;BME280;11298;46.034;14.496;2022-09-13T19:14:17;97866.03;;;22.08;64.63
22259;BME280;11298;46.034;14.496;2022-09-13T19:16:46;97860.88;;;22.20;64.49
22259;BME280;11298;46.034;14.496;2022-09-13T19:19:13;97862.53;;;22.21;64.51
22259;BME280;11298;46.034;14.496;2022-09-13T19:21:41;97862.66;;;21.87;65.30
22259;BME280;11298;46.034;14.496;2022-09-13T19:24:09;97861.84;;;21.87;65.62
22259;BME280;11298;46.034;14.496;2022-09-13T19:26:45;97868.66;;;21.94;65.13
22259;BME280;11298;46.034;14.496;2022-09-13T19:29:16;97861.94;;;22.00;65.19
22259;BME280;11298;46.034;14.496;2022-09-13T19:31:45;97872.31;;;21.90;65.30
22259;BME280;11298;46.034;14.496;2022-09-13T19:34:18;97862.91;;;21.91;65.47
22259;BME280;11298;46.034;14.496;2022-09-13T19:36:46;97867.06;;;21.88;65.56
22259;BME280;11298;46.034;14.496;2022-09-13T19:39:15;97862.81;;;22.01;65.02
22259;BME280;11298;46.034;14.496;2022-09-13T19:41:43;97863.88;;;21.81;65.61
22259;BME280;11298;46.034;14.496;2022-09-13T19:44:11;97865.97;;;21.65;66.85
22259;BME280;11298;46.034;14.496;2022-09-13T19:46:40;97862.63;;;21.68;66.58
22259;BME280;11298;46.034;14.496;2022-09-13T19:49:15;97860.97;;;21.67;66.77
22259;BME280;11298;46.034;14.496;2022-09-13T19:51:44;97861.50;;;21.69;66.87
22259;BME280;11298;46.034;14.496;2022-09-13T19:54:18;97863.78;;;21.62;67.31
22259;BME280;11298;46.034;14.496;2022-09-13T19:56:46;97858.22;;;21.44;68.04
22259;BME280;11298;46.034;14.496;2022-09-13T19:59:16;97856.88;;;21.41;68.29
22259;BME280;11298;46.034;14.496;2022-09-13T20:01:49;97857.50;;;21.33;68.88
22259;BME280;11298;46.034;14.496;2022-09-13T20:04:19;97857.53;;;21.28;69.03
22259;BME280;11298;46.034;14.496;2022-09-13T20:06:53;97861.28;;;21.42;68.74
22259;BME280;11298;46.034;14.496;2022-09-13T20:09:22;97850.28;;;21.37;68.80
22259;BME280;11298;46.034;14.496;2022-09-13T20:11:49;97846.97;;;21.35;68.83
22259;BME280;11298;46.034;14.496;2022-09-13T20:14:18;97845.81;;;21.41;68.62
22259;BME280;11298;46.034;14.496;2022-09-13T20:16:46;97843.16;;;21.31;69.26
22259;BME280;11298;46.034;14.496;2022-09-13T20:19:16;97834.53;;;21.37;68.96
22259;BME280;11298;46.034;14.496;2022-09-13T20:22:06;97836.03;;;21.25;69.27
22259;BME280;11298;46.034;14.496;2022-09-13T20:24:34;97838.56;;;21.21;69.52
22259;BME280;11298;46.034;14.496;2022-09-13T20:27:01;97840.63;;;21.34;68.84
22259;BME280;11298;46.034;14.496;2022-09-13T20:29:28;97839.38;;;21.22;69.23
22259;BME280;11298;46.034;14.496;2022-09-13T20:31:57;97831.03;;;21.27;69.37
22259;BME280;11298;46.034;14.496;2022-09-13T20:34:25;97841.50;;;21.30;69.20
22259;BME280;11298;46.034;14.496;2022-09-13T20:36:54;97845.88;;;21.36;68.67
22259;BME280;11298;46.034;14.496;2022-09-13T20:39:21;97850.41;;;21.22;69.57
22259;BME280;11298;46.034;14.496;2022-09-13T20:41:49;97841.94;;;21.13;69.75
22259;BME280;11298;46.034;14.496;2022-09-13T20:44:16;97843.25;;;21.16;69.69
22259;BME280;11298;46.034;14.496;2022-09-13T20:46:43;97844.00;;;20.97;70.55
22259;BME280;11298;46.034;14.496;2022-09-13T20:49:10;97851.25;;;20.88;71.00
22259;BME280;11298;46.034;14.496;2022-09-13T20:51:37;97851.47;;;20.97;70.64
22259;BME280;11298;46.034;14.496;2022-09-13T20:54:05;97850.09;;;20.94;70.69
22259;BME280;11298;46.034;14.496;2022-09-13T20:56:33;97849.09;;;20.80;71.05
22259;BME280;11298;46.034;14.496;2022-09-13T20:59:01;97847.28;;;20.70;71.45
22259;BME280;11298;46.034;14.496;2022-09-13T21:01:29;97843.91;;;20.79;71.00
22259;BME280;11298;46.034;14.496;2022-09-13T21:03:58;97843.94;;;20.73;71.24
22259;BME280;11298;46.034;14.496;2022-09-13T21:06:27;97848.63;;;20.73;71.48
22259;BME280;11298;46.034;14.496;2022-09-13T21:08:55;97856.94;;;20.68;71.43
22259;BME280;11298;46.034;14.496;2022-09-13T21:11:29;97851.16;;;20.69;71.48
22259;BME280;11298;46.034;14.496;2022-09-13T21:14:02;97856.38;;;20.71;71.27
22259;BME280;11298;46.034;14.496;2022-09-13T21:16:31;97854.06;;;20.83;70.63
22259;BME280;11298;46.034;14.496;2022-09-13T21:18:59;97849.75;;;20.72;71.20
22259;BME280;11298;46.034;14.496;2022-09-13T21:21:35;97854.97;;;20.73;71.09
22259;BME280;11298;46.034;14.496;2022-09-13T21:24:04;97850.94;;;20.61;71.54
22259;BME280;11298;46.034;14.496;2022-09-13T21:26:35;97852.59;;;20.57;71.56
22259;BME280;11298;46.034;14.496;2022-09-13T21:29:02;97843.69;;;20.70;71.05
22259;BME280;11298;46.034;14.496;2022-09-13T21:31:31;97846.34;;;20.46;71.97
22259;BME280;11298;46.034;14.496;2022-09-13T21:34:02;97836.66;;;20.49;71.84
22259;BME280;11298;46.034;14.496;2022-09-13T21:36:31;97837.69;;;20.63;71.50
22259;BME280;11298;46.034;14.496;2022-09-13T21:39:00;97833.91;;;20.49;72.12
22259;BME280;11298;46.034;14.496;2022-09-13T21:41:28;97836.59;;;20.59;71.71
22259;BME280;11298;46.034;14.496;2022-09-13T21:43:55;97839.81;;;20.71;71.31
22259;BME280;11298;46.034;14.496;2022-09-13T21:46:27;97840.59;;;20.43;72.28
22259;BME280;11298;46.034;14.496;2022-09-13T21:48:59;97836.19;;;20.42;72.51
22259;BME280;11298;46.034;14.496;2022-09-13T21:51:32;97830.56;;;20.52;72.07
22259;BME280;11298;46.034;14.496;2022-09-13T21:54:01;97826.13;;;20.56;72.19
22259;BME280;11298;46.034;14.496;2022-09-13T21:56:33;97823.31;;;20.66;71.67
22259;BME280;11298;46.034;14.496;2022-09-13T21:59:02;97829.75;;;20.51;72.03
22259;BME280;11298;46.034;14.496;2022-09-13T22:01:32;97826.16;;;20.51;72.34
22259;BME280;11298;46.034;14.496;2022-09-13T22:04:00;97826.41;;;20.54;72.19
22259;BME280;11298;46.034;14.496;2022-09-13T22:06:28;97827.22;;;20.60;71.76
22259;BME280;11298;46.034;14.496;2022-09-13T22:09:02;97820.38;;;20.52;71.98
22259;BME280;11298;46.034;14.496;2022-09-13T22:11:33;97823.22;;;20.37;72.60
22259;BME280;11298;46.034;14.496;2022-09-13T22:14:00;97837.59;;;20.39;72.56
22259;BME280;11298;46.034;14.496;2022-09-13T22:16:29;97828.53;;;20.23;73.38
22259;BME280;11298;46.034;14.496;2022-09-13T22:19:03;97839.22;;;20.40;72.80